Terminal Aerodrome Forecast
Issued by NWS Tulsa, OK

Home | Current Version | Previous Version | Text Only | Print | Product List | Glossary On
Versions: 1 2 3 4 5 6 7 8 9 10 11 12 13 14
000
FTUS44 KTSA 312329
TAFFSM
TAF
KFSM 312329Z 0100/0124 02003KT P6SM VCSH BKN110 OVC250
     FM010600 07004KT P6SM OVC100
     FM010900 05004KT P6SM VCSH OVC050 PROB30 0112/0118 4SM -SHRA
      OVC030
     FM011800 03005KT P6SM VCSH OVC050 PROB30 0118/0124 2SM TSRA
      BKN040CB=

USA.gov is the U.S. government's official web portal to all federal, state and local government web resources and services.